Bridgeville, PA (15017)

12:19 AM EDT on September 22, 2014 (GMT -0400)
Olde Orchard South Fayette Bridgeville | Change Station
CLOSE
Current Station
Personal Weather Station
Location: Bridgeville, PA
Elevation: 1040 ft
Nearby Weather Stations

Elev 1040 ft 40.34 °N, 80.12 °W | Updated 4 minutes ago

Clear
Clear
55.8 °F
Feels Like 55.8 °F
N
0.0
Wind Variable Wind from North
Gusts 0.0 mph

Today
High -- | Low -- °F
--% Chance of Precip.
Yesterday
High -- | Low -- °F
Precip. -- in
7:08 AM 7:17 PM
Waning Crescent, 4% visible
Pressure 29.88 in
Visibility 10.0 miles
Clouds Mostly Cloudy 2400 ft
Overcast 3000 ft
Dew Point 47 °F
Humidity 73%
Rainfall 0.00 in
Snow Depth Not available.
UV 0 out of 12
Pollen 1.50 out of 12
Ozone Good
PM2.5 Good
Flu Activity Not available.
SPECI KAGC 220414Z 29008G15KT 10SM BKN024 OVC030 15/09 A2988 RMK AO2 T01500089

More Conditions Fewer Conditions

Pressure 29.88 in
Visibility 10.0 miles
Clouds Mostly Cloudy 2400 ft
Overcast 3000 ft
Dew Point 47 °F
Humidity 73%
Rainfall 0.00 in
Snow Depth Not available.
UV 0 out of 12
Pollen 1.50 out of 12
Ozone Good
PM2.5 Good
Flu Activity Not available.
SPECI KAGC 220414Z 29008G15KT 10SM BKN024 OVC030 15/09 A2988 RMK AO2 T01500089

More Conditions Fewer Conditions

10-Day Weather Forecast

Almanac

Astronomy

Sep. 22, 2014 Rise Set
Actual Time 7:08 AM EDT 7:17 PM EDT
Civil Twilight 6:40 AM EDT 7:44 PM EDT
Nautical Twilight 6:08 AM EDT 8:16 PM EDT
Astronomical Twilight 5:36 AM EDT 8:48 PM EDT
Moon 5:35 AM EDT 6:24 PM EDT
Length of Visible Light 13h 03m
Length of Day
12h 09m
Tomorrow will be 2m 40s shorter.
Waning Crescent, 4% of the Moon is Illuminated
Today
Waning Crescent
Sep 24
New
Oct 1
First Quarter
Oct 8
Full
Oct 15
Last Quarter

Yesterday's Extremes

State Highs State Lows

Community

WunderPhotos

Upload Photos

1,755,383 photos uploaded!

Nearby

Air Quality

  Air Quality AQ Index Pollutant
Yesterday Moderate
PM2.5
Yesterday Good
OZONE
Current Good
PM2.5
Current Good
OZONE
Sunday Moderate
PM2.5
Monday Good
PM2.5
Tuesday Good
PM2.5

Snow Depth

Station Depth Elevation
No new snow has been reported.

Earthquake Activity

City Distance Mag. Time & Date
No recent earthquake activity has been reported nearby.
Minimum magnitude displayed is 2.5.

Coastal Water Temperatures

Place Temperature
No Stations Reporting

Nearby Weather Stations